Terminal Aerodrome Forecast
Issued by NWS

Home | Current Version | Previous Version | Text Only | Print | Product List | Glossary On
Versions: 1 2 3 4 5 6 7 8 9 10 11 12 13 14 15 16 17
871
FTUS41 KPHI 190520
TAFMIV
TAF
KMIV 190520Z 1906/2006 00000KT P6SM SKC
      TEMPO 1909/1912 3SM BR
     FM191500 23007KT P6SM FEW250
     FM200200 00000KT P6SM SKC=

USA.gov is the U.S. government's official web portal to all federal, state and local government web resources and services.